createdAt,value
2018-02-16T00:00:40.856Z,99.90
2018-02-16T00:01:45.057Z,99.90
2018-02-16T00:02:49.247Z,99.90
2018-02-16T00:03:53.465Z,99.90
2018-02-16T00:04:57.683Z,99.90
2018-02-16T00:06:02.186Z,99.90
2018-02-16T00:07:06.575Z,99.90
2018-02-16T00:08:11.595Z,99.90
2018-02-16T00:09:16.625Z,99.90
2018-02-16T00:10:21.584Z,99.90
2018-02-16T00:11:25.804Z,99.90
2018-02-16T00:12:30.007Z,99.90
2018-02-16T00:13:34.632Z,99.90
2018-02-16T00:14:39.050Z,99.90
2018-02-16T00:15:43.321Z,99.90
2018-02-16T00:16:47.534Z,99.90
2018-02-16T00:17:52.492Z,99.90
2018-02-16T00:18:56.690Z,99.90
2018-02-16T00:20:01.672Z,99.90
2018-02-16T00:21:06.909Z,99.90
2018-02-16T00:22:14.578Z,99.90
2018-02-16T00:23:18.870Z,99.90
2018-02-16T00:24:23.047Z,99.90
2018-02-16T00:25:27.250Z,99.90
2018-02-16T00:26:31.460Z,99.90
2018-02-16T00:27:37.425Z,99.90
2018-02-16T00:28:41.841Z,99.90
2018-02-16T00:29:46.860Z,99.90
2018-02-16T00:30:51.043Z,99.90
2018-02-16T00:31:55.232Z,99.90
2018-02-16T00:32:59.424Z,99.90
2018-02-16T00:34:05.164Z,99.90
2018-02-16T00:35:09.493Z,99.90
2018-02-16T00:36:14.085Z,99.90
2018-02-16T00:37:19.049Z,99.90
2018-02-16T00:38:23.250Z,99.90
2018-02-16T00:39:27.460Z,99.90
2018-02-16T00:40:31.709Z,99.90
2018-02-16T00:41:36.935Z,99.90
2018-02-16T00:42:41.237Z,99.90
2018-02-16T00:43:46.515Z,99.90
2018-02-16T00:44:50.688Z,99.90
2018-02-16T00:45:54.916Z,99.90
2018-02-16T00:46:59.137Z,99.90
2018-02-16T00:48:03.727Z,99.90
2018-02-16T00:49:08.291Z,99.90
2018-02-16T00:50:13.578Z,99.90
2018-02-16T00:51:17.771Z,99.90
2018-02-16T00:52:21.951Z,99.90
2018-02-16T00:53:26.203Z,99.90
2018-02-16T00:54:30.405Z,99.90
2018-02-16T00:55:35.009Z,99.90
2018-02-16T00:56:39.310Z,99.90
2018-02-16T00:57:43.591Z,99.90
2018-02-16T00:58:47.902Z,99.90
2018-02-16T00:59:52.087Z,99.90
2018-02-16T01:00:56.286Z,99.90
2018-02-16T01:02:00.475Z,99.90
2018-02-16T01:03:05.635Z,99.90
2018-02-16T01:04:10.676Z,99.90
2018-02-16T01:05:14.978Z,99.90
2018-02-16T01:06:19.179Z,99.90
2018-02-16T01:07:23.381Z,99.90
2018-02-16T01:08:27.578Z,99.90
2018-02-16T01:09:32.643Z,99.90
2018-02-16T01:10:38.160Z,99.90
2018-02-16T01:11:42.673Z,99.90
2018-02-16T01:12:46.954Z,99.90
2018-02-16T01:13:51.153Z,99.90
2018-02-16T01:14:55.359Z,99.90
2018-02-16T01:15:59.568Z,99.90
2018-02-16T01:17:03.973Z,99.90
2018-02-16T01:18:08.770Z,99.90
2018-02-16T01:19:13.134Z,99.90
2018-02-16T01:20:18.239Z,99.90
2018-02-16T01:21:22.446Z,99.90
2018-02-16T01:22:26.637Z,99.90
2018-02-16T01:23:30.839Z,99.90
2018-02-16T01:24:35.692Z,99.90
2018-02-16T01:25:40.355Z,99.90
2018-02-16T01:26:45.485Z,99.90
2018-02-16T01:27:49.695Z,99.90
2018-02-16T01:28:53.891Z,99.90
2018-02-16T01:29:58.143Z,99.90
2018-02-16T01:31:04.011Z,99.90
2018-02-16T01:32:09.444Z,99.90
2018-02-16T01:33:13.729Z,99.90
2018-02-16T01:34:18.727Z,99.90
2018-02-16T01:35:22.954Z,99.90
2018-02-16T01:36:27.167Z,99.90
2018-02-16T01:37:31.364Z,99.90
2018-02-16T01:38:35.934Z,99.90
2018-02-16T01:39:40.572Z,99.90
2018-02-16T01:40:44.902Z,99.90
2018-02-16T01:41:49.143Z,99.90
2018-02-16T01:42:53.328Z,99.90
2018-02-16T01:43:57.522Z,99.90
2018-02-16T01:45:02.030Z,99.90
2018-02-16T01:46:07.010Z,99.90
2018-02-16T01:47:11.783Z,99.90
2018-02-16T01:48:15.992Z,99.90
2018-02-16T01:49:20.181Z,99.90
2018-02-16T01:50:25.149Z,99.90
2018-02-16T01:51:29.353Z,99.90
2018-02-16T01:52:33.786Z,99.90
2018-02-16T01:53:39.094Z,99.90
2018-02-16T01:54:43.336Z,99.90
2018-02-16T01:55:47.553Z,99.90
2018-02-16T01:56:51.732Z,99.90
2018-02-16T01:57:55.936Z,99.90
2018-02-16T01:59:00.134Z,99.90
2018-02-16T02:00:05.885Z,99.90
2018-02-16T02:01:10.180Z,99.90
2018-02-16T02:02:15.257Z,99.90
2018-02-16T02:03:19.478Z,99.90
2018-02-16T02:04:23.693Z,99.90
2018-02-16T02:05:27.882Z,99.90
2018-02-16T02:06:32.184Z,99.90
2018-02-16T02:07:37.621Z,99.90
2018-02-16T02:08:42.029Z,99.90
2018-02-16T02:09:46.299Z,99.90
2018-02-16T02:10:50.495Z,99.90
2018-02-16T02:11:54.681Z,99.90
2018-02-16T02:12:58.890Z,99.90
2018-02-16T02:14:03.286Z,99.90
2018-02-16T02:15:08.432Z,99.90
2018-02-16T02:16:13.213Z,99.90
2018-02-16T02:17:17.459Z,99.90
2018-02-16T02:18:21.687Z,99.90
2018-02-16T02:19:25.885Z,99.90
2018-02-16T02:20:30.071Z,99.90
2018-02-16T02:21:35.056Z,99.90
2018-02-16T02:22:39.643Z,99.90
2018-02-16T02:23:44.118Z,99.90
2018-02-16T02:24:49.132Z,99.90
2018-02-16T02:25:53.351Z,99.90
2018-02-16T02:26:57.558Z,99.90
2018-02-16T02:28:01.822Z,99.90
2018-02-16T02:29:08.381Z,99.90
2018-02-16T02:30:12.930Z,99.90
2018-02-16T02:31:17.564Z,99.90
2018-02-16T02:32:21.748Z,99.90
2018-02-16T02:33:25.947Z,99.90
2018-02-16T02:34:30.137Z,99.90
2018-02-16T02:35:35.567Z,99.90
2018-02-16T02:36:41.108Z,99.90
2018-02-16T02:37:45.928Z,99.90
2018-02-16T02:38:50.135Z,99.90
2018-02-16T02:39:54.312Z,99.90
2018-02-16T02:40:58.558Z,99.90
2018-02-16T02:42:03.152Z,99.90
2018-02-16T02:43:09.363Z,99.90
2018-02-16T02:44:14.240Z,99.90
2018-02-16T02:45:19.532Z,99.90
2018-02-16T02:46:23.750Z,99.90
2018-02-16T02:47:28.008Z,99.90
2018-02-16T02:48:32.787Z,99.90
2018-02-16T02:49:38.280Z,99.90
2018-02-16T02:50:43.389Z,99.90
2018-02-16T02:51:47.771Z,99.90
2018-02-16T02:52:51.974Z,99.90
2018-02-16T02:53:56.170Z,99.90
2018-02-16T02:55:01.116Z,99.90
2018-02-16T02:56:05.856Z,99.90
2018-02-16T02:57:10.341Z,99.90
2018-02-16T02:58:14.584Z,99.90
2018-02-16T02:59:18.801Z,99.90
2018-02-16T03:00:22.988Z,99.90
2018-02-16T03:01:27.185Z,99.90
2018-02-16T03:02:32.224Z,99.90
2018-02-16T03:03:39.338Z,99.90
2018-02-16T03:04:43.760Z,99.90
2018-02-16T03:05:48.759Z,99.90
2018-02-16T03:06:52.949Z,99.90
2018-02-16T03:07:57.935Z,99.90
2018-02-16T03:09:02.345Z,99.90
2018-02-16T03:10:09.363Z,99.90
2018-02-16T03:11:14.123Z,99.90
2018-02-16T03:12:18.508Z,99.90
2018-02-16T03:13:23.486Z,99.90
2018-02-16T03:14:27.677Z,99.90
2018-02-16T03:15:31.885Z,99.90
2018-02-16T03:16:37.810Z,99.90
2018-02-16T03:17:42.530Z,99.90
2018-02-16T03:18:47.489Z,99.90
2018-02-16T03:19:51.660Z,99.90
2018-02-16T03:20:56.636Z,99.90
2018-02-16T03:22:00.876Z,99.90
2018-02-16T03:23:07.221Z,99.90
2018-02-16T03:24:11.567Z,99.90
2018-02-16T03:25:16.570Z,99.90
2018-02-16T03:26:20.765Z,99.90
2018-02-16T03:27:25.021Z,99.90
2018-02-16T03:28:29.979Z,99.90
2018-02-16T03:29:35.157Z,99.90
2018-02-16T03:30:40.602Z,99.90
2018-02-16T03:31:45.717Z,99.90
2018-02-16T03:32:49.969Z,99.90
2018-02-16T03:33:54.921Z,99.90
2018-02-16T03:34:59.091Z,99.90
2018-02-16T03:36:04.101Z,99.90
2018-02-16T03:37:09.419Z,99.90
2018-02-16T03:38:13.828Z,99.90
2018-02-16T03:39:18.072Z,99.90
2018-02-16T03:40:22.262Z,99.90
2018-02-16T03:41:26.463Z,99.90
2018-02-16T03:42:30.643Z,99.90
2018-02-16T03:43:36.915Z,99.90
2018-02-16T03:44:41.408Z,99.90
2018-02-16T03:45:46.015Z,99.90
2018-02-16T03:46:50.209Z,99.90
2018-02-16T03:47:54.391Z,99.90
2018-02-16T03:48:58.644Z,99.90
2018-02-16T03:50:03.936Z,99.90
2018-02-16T03:51:09.131Z,99.90
2018-02-16T03:52:13.994Z,99.90
2018-02-16T03:53:18.213Z,99.90
2018-02-16T03:54:22.423Z,99.90
2018-02-16T03:55:26.623Z,99.90
2018-02-16T03:56:30.844Z,99.90
2018-02-16T03:57:36.476Z,99.90
2018-02-16T03:58:42.601Z,99.90
2018-02-16T03:59:46.936Z,99.90
2018-02-16T04:00:51.150Z,99.90
2018-02-16T04:01:55.379Z,99.90
2018-02-16T04:02:59.594Z,99.90
2018-02-16T04:04:05.106Z,99.90
2018-02-16T04:05:09.658Z,99.90
2018-02-16T04:06:13.999Z,99.90
2018-02-16T04:07:18.252Z,99.90
2018-02-16T04:08:22.465Z,99.90
2018-02-16T04:09:26.643Z,99.90
2018-02-16T04:10:30.838Z,99.90
2018-02-16T04:11:35.968Z,99.90
2018-02-16T04:12:40.549Z,99.90
2018-02-16T04:13:44.949Z,99.90
2018-02-16T04:14:49.184Z,99.90
2018-02-16T04:15:53.434Z,99.90
2018-02-16T04:16:57.652Z,99.90
2018-02-16T04:18:01.895Z,99.90
2018-02-16T04:19:08.582Z,99.90
2018-02-16T04:20:13.909Z,99.90
2018-02-16T04:21:18.298Z,99.90
2018-02-16T04:22:23.277Z,99.90
2018-02-16T04:23:27.485Z,99.90
2018-02-16T04:24:31.732Z,99.90
2018-02-16T04:25:38.920Z,99.90
2018-02-16T04:26:44.116Z,99.90
2018-02-16T04:27:48.314Z,99.90
2018-02-16T04:28:52.511Z,99.90
2018-02-16T04:29:56.725Z,99.90
2018-02-16T04:31:00.917Z,99.90
2018-02-16T04:32:06.004Z,99.90
2018-02-16T04:33:11.131Z,99.90
2018-02-16T04:34:16.338Z,99.90
2018-02-16T04:35:20.538Z,99.90
2018-02-16T04:36:24.744Z,99.90
2018-02-16T04:37:28.971Z,99.90
2018-02-16T04:38:33.411Z,99.90
2018-02-16T04:39:38.442Z,99.90
2018-02-16T04:40:43.823Z,99.90
2018-02-16T04:41:48.040Z,99.90
2018-02-16T04:42:52.238Z,99.90
2018-02-16T04:43:57.205Z,99.90
2018-02-16T04:45:01.502Z,99.90
2018-02-16T04:46:08.080Z,99.90
2018-02-16T04:47:12.852Z,99.90
2018-02-16T04:48:17.854Z,99.90
2018-02-16T04:49:22.056Z,99.90
2018-02-16T04:50:26.242Z,99.90
2018-02-16T04:51:30.452Z,99.90
2018-02-16T04:52:35.837Z,99.90
2018-02-16T04:53:40.736Z,99.90
2018-02-16T04:54:45.277Z,99.90
2018-02-16T04:55:49.491Z,99.90
2018-02-16T04:56:53.690Z,99.90
2018-02-16T04:57:57.920Z,99.90
2018-02-16T04:59:02.287Z,99.90
2018-02-16T05:00:08.005Z,99.90
2018-02-16T05:01:12.475Z,99.90
2018-02-16T05:02:16.894Z,99.90
2018-02-16T05:03:21.100Z,99.90
2018-02-16T05:04:25.279Z,99.90
2018-02-16T05:05:29.491Z,99.90
2018-02-16T05:06:34.656Z,99.90
2018-02-16T05:07:39.274Z,99.90
2018-02-16T05:08:43.576Z,99.90
2018-02-16T05:09:47.836Z,99.90
2018-02-16T05:10:52.028Z,99.90
2018-02-16T05:11:56.254Z,99.90
2018-02-16T05:13:00.454Z,99.90
2018-02-16T05:14:05.307Z,99.90
2018-02-16T05:15:09.878Z,99.90
2018-02-16T05:16:14.181Z,99.90
2018-02-16T05:17:18.375Z,99.90
2018-02-16T05:18:22.593Z,99.90
2018-02-16T05:19:26.815Z,99.90
2018-02-16T05:20:31.039Z,99.90
2018-02-16T05:21:36.239Z,99.90
2018-02-16T05:22:42.670Z,99.90
2018-02-16T05:23:47.681Z,99.90
2018-02-16T05:24:51.929Z,99.90
2018-02-16T05:25:56.877Z,99.90
2018-02-16T05:27:01.067Z,99.90
2018-02-16T05:28:06.051Z,99.90
2018-02-16T05:29:11.177Z,99.90
2018-02-16T05:30:16.046Z,99.90
2018-02-16T05:31:21.010Z,99.90
2018-02-16T05:32:25.226Z,99.90
2018-02-16T05:33:29.445Z,99.90
2018-02-16T05:34:34.611Z,99.90
2018-02-16T05:35:40.326Z,99.90
2018-02-16T05:36:44.599Z,99.90
2018-02-16T05:37:48.809Z,99.90
2018-02-16T05:38:53.751Z,99.90
2018-02-16T05:39:57.934Z,99.90
2018-02-16T05:41:03.102Z,99.90
2018-02-16T05:42:07.663Z,99.90
2018-02-16T05:43:11.933Z,99.90
2018-02-16T05:44:16.278Z,99.90
2018-02-16T05:45:20.455Z,99.90
2018-02-16T05:46:24.654Z,99.90
2018-02-16T05:47:28.855Z,99.90
2018-02-16T05:48:34.595Z,99.90
2018-02-16T05:49:39.301Z,99.90
2018-02-16T05:50:44.802Z,99.90
2018-02-16T05:51:49.038Z,99.90
2018-02-16T05:52:53.239Z,99.90
2018-02-16T05:53:57.460Z,99.90
2018-02-16T05:55:01.676Z,99.90
2018-02-16T05:56:06.779Z,99.90
2018-02-16T05:57:11.981Z,99.90
2018-02-16T05:58:16.333Z,99.90
2018-02-16T05:59:20.506Z,99.90
2018-02-16T06:00:24.688Z,99.90
2018-02-16T06:01:28.888Z,99.90
2018-02-16T06:02:33.276Z,99.90
2018-02-16T06:03:37.954Z,99.90
2018-02-16T06:04:43.327Z,99.90
2018-02-16T06:05:47.549Z,99.90
2018-02-16T06:06:51.727Z,99.90
2018-02-16T06:07:55.925Z,99.90
2018-02-16T06:09:00.130Z,99.90
2018-02-16T06:10:06.713Z,99.90
2018-02-16T06:11:11.667Z,99.90
2018-02-16T06:12:15.923Z,99.90
2018-02-16T06:13:20.883Z,99.90
2018-02-16T06:14:25.130Z,99.90
2018-02-16T06:15:29.332Z,99.90
2018-02-16T06:16:34.216Z,99.90
2018-02-16T06:17:39.931Z,99.90
2018-02-16T06:18:44.342Z,99.90
2018-02-16T06:19:48.589Z,99.90
2018-02-16T06:20:52.781Z,99.90
2018-02-16T06:21:57.803Z,99.90
2018-02-16T06:23:02.211Z,99.90
2018-02-16T06:24:07.104Z,99.90
2018-02-16T06:25:11.941Z,99.90
2018-02-16T06:26:16.392Z,99.90
2018-02-16T06:27:21.414Z,99.90
2018-02-16T06:28:25.612Z,99.90
2018-02-16T06:29:29.783Z,99.90
2018-02-16T06:30:34.299Z,99.90
2018-02-16T06:31:40.304Z,99.90
2018-02-16T06:32:44.708Z,99.90
2018-02-16T06:33:48.918Z,99.90
2018-02-16T06:34:53.128Z,99.90
2018-02-16T06:35:57.335Z,99.90
2018-02-16T06:37:01.606Z,99.90
2018-02-16T06:38:07.664Z,99.90
2018-02-16T06:39:12.059Z,99.90
2018-02-16T06:40:16.387Z,99.90
2018-02-16T06:41:20.581Z,99.90
2018-02-16T06:42:25.555Z,99.90
2018-02-16T06:43:29.864Z,99.90
2018-02-16T06:44:34.479Z,99.90
2018-02-16T06:45:40.117Z,99.90
2018-02-16T06:46:44.474Z,99.90
2018-02-16T06:47:49.497Z,99.90
2018-02-16T06:48:53.694Z,99.90
2018-02-16T06:49:57.895Z,99.90
2018-02-16T06:51:02.184Z,99.90
2018-02-16T06:52:07.042Z,99.90
2018-02-16T06:53:11.421Z,99.90
2018-02-16T06:54:15.802Z,99.90
2018-02-16T06:55:19.998Z,99.90
2018-02-16T06:56:24.244Z,99.90
2018-02-16T06:57:28.423Z,99.90
2018-02-16T06:58:32.883Z,99.90
2018-02-16T06:59:37.711Z,99.90
2018-02-16T07:00:42.941Z,99.90
2018-02-16T07:01:47.142Z,99.90
2018-02-16T07:02:52.096Z,99.90
2018-02-16T07:03:56.351Z,99.90
2018-02-16T07:05:00.544Z,99.90
2018-02-16T07:06:07.229Z,99.90
2018-02-16T07:07:11.844Z,99.90
2018-02-16T07:08:16.120Z,99.90
2018-02-16T07:09:20.303Z,99.90
2018-02-16T07:10:25.250Z,99.90
2018-02-16T07:11:29.475Z,99.90
2018-02-16T07:12:34.796Z,99.90
2018-02-16T07:13:40.043Z,99.90
2018-02-16T07:14:44.318Z,99.90
2018-02-16T07:15:48.542Z,99.90
2018-02-16T07:16:52.742Z,99.90
2018-02-16T07:17:57.717Z,99.90
2018-02-16T07:19:02.200Z,99.90
2018-02-16T07:20:07.540Z,99.90
2018-02-16T07:21:12.096Z,99.90
2018-02-16T07:22:16.338Z,99.90
2018-02-16T07:23:20.555Z,99.90
2018-02-16T07:24:25.700Z,99.90
2018-02-16T07:25:29.898Z,99.90
2018-02-16T07:26:36.314Z,99.90
2018-02-16T07:27:42.006Z,99.90
2018-02-16T07:28:46.266Z,99.90
2018-02-16T07:29:50.475Z,99.90
2018-02-16T07:30:54.730Z,99.90
2018-02-16T07:31:59.703Z,99.90
2018-02-16T07:33:05.335Z,99.90
2018-02-16T07:34:10.157Z,99.90
2018-02-16T07:35:15.599Z,99.90
2018-02-16T07:36:19.834Z,99.90
2018-02-16T07:37:24.038Z,99.90
2018-02-16T07:38:28.242Z,99.90
2018-02-16T07:39:32.935Z,99.90
2018-02-16T07:40:38.734Z,99.90
2018-02-16T07:41:43.508Z,99.90
2018-02-16T07:42:47.766Z,99.90
2018-02-16T07:43:51.968Z,99.90
2018-02-16T07:44:56.189Z,99.90
2018-02-16T07:46:00.425Z,99.90
2018-02-16T07:47:05.533Z,99.90
2018-02-16T07:48:10.144Z,99.90
2018-02-16T07:49:14.488Z,99.90
2018-02-16T07:50:19.494Z,99.90
2018-02-16T07:51:23.702Z,99.90
2018-02-16T07:52:27.948Z,99.90
2018-02-16T07:53:32.206Z,99.90
2018-02-16T07:54:39.027Z,99.90
2018-02-16T07:55:43.435Z,99.90
2018-02-16T07:56:47.656Z,99.90
2018-02-16T07:57:51.887Z,99.90
2018-02-16T07:58:56.846Z,99.90
2018-02-16T08:00:01.076Z,99.90
2018-02-16T08:01:07.163Z,99.90
2018-02-16T08:02:11.684Z,99.90
2018-02-16T08:03:15.956Z,99.90
2018-02-16T08:04:20.185Z,99.90
2018-02-16T08:05:24.391Z,99.90
2018-02-16T08:06:28.631Z,99.90
2018-02-16T08:07:34.437Z,99.90
2018-02-16T08:08:41.054Z,99.90
2018-02-16T08:09:45.561Z,99.90
2018-02-16T08:10:49.742Z,99.90
2018-02-16T08:11:54.005Z,99.90
2018-02-16T08:12:59.121Z,99.90
2018-02-16T08:14:04.286Z,99.90
2018-02-16T08:15:08.983Z,99.90
2018-02-16T08:16:13.528Z,99.90
2018-02-16T08:17:18.638Z,99.90
2018-02-16T08:18:22.870Z,99.90
2018-02-16T08:19:27.071Z,99.90
2018-02-16T08:20:31.354Z,99.90
2018-02-16T08:21:37.760Z,99.90
2018-02-16T08:22:42.996Z,99.90
2018-02-16T08:23:48.047Z,99.90
2018-02-16T08:24:52.333Z,99.90
2018-02-16T08:25:56.576Z,99.90
2018-02-16T08:27:00.778Z,99.90
2018-02-16T08:28:08.140Z,99.90
2018-02-16T08:29:12.860Z,99.90
2018-02-16T08:30:17.441Z,99.90
2018-02-16T08:31:21.654Z,99.90
2018-02-16T08:32:25.859Z,99.90
2018-02-16T08:33:30.119Z,99.90
2018-02-16T08:34:35.757Z,99.90
2018-02-16T08:35:41.109Z,99.90
2018-02-16T08:36:45.675Z,99.90
2018-02-16T08:37:49.850Z,99.90
2018-02-16T08:38:54.051Z,99.90
2018-02-16T08:39:58.252Z,99.90
2018-02-16T08:41:03.820Z,99.90
2018-02-16T08:42:08.479Z,99.90
2018-02-16T08:43:13.783Z,99.90
2018-02-16T08:44:18.937Z,99.90
2018-02-16T08:45:23.119Z,99.90
2018-02-16T08:46:27.333Z,99.90
2018-02-16T08:47:31.582Z,99.90
2018-02-16T08:48:38.587Z,99.90
2018-02-16T08:49:43.889Z,99.90
2018-02-16T08:50:48.877Z,99.90
2018-02-16T08:51:53.051Z,99.90
2018-02-16T08:52:58.023Z,99.90
2018-02-16T08:54:03.174Z,99.90
2018-02-16T08:55:08.261Z,99.90
2018-02-16T08:56:12.806Z,99.90
2018-02-16T08:57:17.322Z,99.90
2018-02-16T08:58:21.490Z,99.90
2018-02-16T08:59:26.450Z,99.90
2018-02-16T09:00:30.691Z,99.90
2018-02-16T09:01:37.875Z,99.90
2018-02-16T09:02:43.226Z,99.90
2018-02-16T09:03:48.496Z,99.90
2018-02-16T09:04:52.714Z,99.90
2018-02-16T09:05:56.966Z,99.90
2018-02-16T09:07:01.824Z,99.90
2018-02-16T09:08:07.564Z,99.90
2018-02-16T09:09:11.906Z,99.90
2018-02-16T09:10:16.210Z,99.90
2018-02-16T09:11:20.411Z,99.90
2018-02-16T09:12:25.431Z,99.90
2018-02-16T09:13:30.419Z,99.90
2018-02-16T09:14:35.022Z,99.90
2018-02-16T09:15:40.223Z,99.90
2018-02-16T09:16:44.598Z,99.90
2018-02-16T09:17:48.818Z,99.90
2018-02-16T09:18:53.028Z,99.90
2018-02-16T09:19:57.202Z,99.90
2018-02-16T09:21:01.375Z,99.90
2018-02-16T09:22:07.673Z,99.90
2018-02-16T09:23:12.565Z,99.90
2018-02-16T09:24:17.527Z,99.90
2018-02-16T09:25:21.731Z,99.90
2018-02-16T09:26:26.055Z,99.90
2018-02-16T09:27:30.247Z,99.90
2018-02-16T09:28:36.509Z,99.90
2018-02-16T09:29:41.214Z,99.90
2018-02-16T09:30:45.710Z,99.90
2018-02-16T09:31:49.955Z,99.90
2018-02-16T09:32:54.139Z,99.90
2018-02-16T09:33:58.333Z,99.90
2018-02-16T09:35:02.755Z,99.90
2018-02-16T09:36:09.693Z,99.90
2018-02-16T09:37:15.463Z,99.90
2018-02-16T09:38:19.654Z,99.90
2018-02-16T09:39:25.093Z,99.90
2018-02-16T09:40:29.686Z,99.90
2018-02-16T09:41:36.422Z,99.90
2018-02-16T09:42:41.444Z,99.90
2018-02-16T09:43:45.902Z,99.90
2018-02-16T09:44:50.108Z,99.90
2018-02-16T09:45:54.325Z,99.90
2018-02-16T09:46:58.564Z,99.90
2018-02-16T09:48:02.971Z,99.90
2018-02-16T09:49:08.086Z,99.90
2018-02-16T09:50:13.189Z,99.90
2018-02-16T09:51:17.426Z,99.90
2018-02-16T09:52:21.764Z,99.90
2018-02-16T09:53:25.961Z,99.90
2018-02-16T09:54:30.206Z,99.90
2018-02-16T09:55:35.595Z,99.90
2018-02-16T09:56:40.816Z,99.90
2018-02-16T09:57:45.632Z,99.90
2018-02-16T09:58:50.607Z,99.90
2018-02-16T09:59:54.787Z,99.90
2018-02-16T10:00:58.975Z,99.90
2018-02-16T10:02:03.289Z,99.90
2018-02-16T10:03:08.255Z,99.90
2018-02-16T10:04:12.870Z,99.90
2018-02-16T10:05:17.167Z,99.90
2018-02-16T10:06:22.099Z,99.90
2018-02-16T10:07:27.035Z,99.90
2018-02-16T10:08:31.288Z,99.90
2018-02-16T10:09:36.721Z,99.90
2018-02-16T10:10:41.807Z,99.90
2018-02-16T10:11:46.143Z,99.90
2018-02-16T10:12:50.382Z,99.90
2018-02-16T10:13:54.608Z,99.90
2018-02-16T10:14:58.812Z,99.90
2018-02-16T10:16:03.598Z,99.90
2018-02-16T10:17:08.188Z,99.90
2018-02-16T10:18:13.754Z,99.90
2018-02-16T10:19:18.030Z,99.90
2018-02-16T10:20:22.196Z,99.90
2018-02-16T10:21:26.366Z,99.90
2018-02-16T10:22:31.314Z,99.90
2018-02-16T10:23:37.188Z,99.90
2018-02-16T10:24:42.600Z,99.90
2018-02-16T10:25:46.853Z,99.90
2018-02-16T10:26:51.095Z,99.90
2018-02-16T10:27:55.401Z,99.90
2018-02-16T10:28:59.576Z,99.90
2018-02-16T10:30:04.611Z,99.90
2018-02-16T10:31:09.194Z,99.90
2018-02-16T10:32:13.595Z,99.90
2018-02-16T10:33:17.837Z,99.90
2018-02-16T10:34:22.027Z,99.90
2018-02-16T10:35:26.196Z,99.90
2018-02-16T10:36:30.410Z,99.90
2018-02-16T10:37:35.328Z,99.90
2018-02-16T10:38:40.310Z,99.90
2018-02-16T10:39:44.944Z,99.90
2018-02-16T10:40:49.180Z,99.90
2018-02-16T10:41:53.376Z,99.90
2018-02-16T10:42:57.593Z,99.90
2018-02-16T10:44:01.787Z,99.90
2018-02-16T10:45:07.843Z,99.90
2018-02-16T10:46:12.163Z,99.90
2018-02-16T10:47:16.485Z,99.90
2018-02-16T10:48:20.722Z,99.90
2018-02-16T10:49:24.902Z,99.90
2018-02-16T10:50:29.080Z,99.90
2018-02-16T10:51:33.719Z,99.90
2018-02-16T10:52:39.206Z,99.90
2018-02-16T10:53:44.967Z,99.90
2018-02-16T10:54:49.219Z,99.90
2018-02-16T10:55:53.407Z,99.90
2018-02-16T10:56:58.335Z,99.90
2018-02-16T10:58:03.779Z,99.90
2018-02-16T10:59:08.545Z,99.90
2018-02-16T11:00:14.306Z,99.90
2018-02-16T11:01:19.726Z,99.90
2018-02-16T11:02:29.505Z,99.90
2018-02-16T11:03:38.522Z,99.90
2018-02-16T11:04:48.303Z,99.90
2018-02-16T11:06:02.221Z,99.90
2018-02-16T11:07:13.363Z,99.90
2018-02-16T11:08:23.076Z,99.90
2018-02-16T11:09:27.534Z,99.90
2018-02-16T11:10:32.926Z,99.90
2018-02-16T11:11:38.421Z,99.90
2018-02-16T11:12:42.710Z,99.90
2018-02-16T11:13:47.711Z,99.90
2018-02-16T11:14:51.884Z,99.90
2018-02-16T11:15:56.858Z,99.90
2018-02-16T11:17:01.036Z,99.90
2018-02-16T11:18:06.187Z,99.90
2018-02-16T11:19:10.773Z,99.90
2018-02-16T11:20:15.857Z,99.90
2018-02-16T11:21:20.137Z,99.90
2018-02-16T11:22:24.323Z,99.90
2018-02-16T11:23:29.263Z,99.90
2018-02-16T11:24:33.971Z,99.90
2018-02-16T11:25:38.408Z,99.90
2018-02-16T11:26:42.764Z,99.40
2018-02-16T11:27:47.097Z,98.50
2018-02-16T11:28:51.316Z,98.30
2018-02-16T11:29:55.508Z,98.30
2018-02-16T11:30:59.700Z,98.20
2018-02-16T11:32:04.494Z,98.20
2018-02-16T11:33:08.944Z,98.00
2018-02-16T11:34:13.479Z,98.20
2018-02-16T11:35:18.481Z,98.60
2018-02-16T11:36:22.695Z,98.50
2018-02-16T11:37:26.887Z,99.00
2018-02-16T11:38:31.106Z,99.00
2018-02-16T11:39:36.096Z,98.40
2018-02-16T11:40:40.921Z,97.90
2018-02-16T11:41:46.622Z,97.80
2018-02-16T11:42:50.859Z,97.60
2018-02-16T11:43:55.029Z,97.30
2018-02-16T11:44:59.368Z,97.30
2018-02-16T11:46:03.957Z,97.00
2018-02-16T11:47:08.844Z,96.80
2018-02-16T11:48:13.400Z,96.60
2018-02-16T11:49:17.654Z,95.40
2018-02-16T11:50:21.837Z,95.10
2018-02-16T11:51:26.042Z,95.00
2018-02-16T11:52:30.230Z,94.80
2018-02-16T11:53:35.294Z,94.60
2018-02-16T11:54:40.129Z,95.00
2018-02-16T11:55:44.482Z,95.30
2018-02-16T11:56:48.769Z,96.40
2018-02-16T11:57:52.959Z,95.50
2018-02-16T11:58:57.158Z,94.60
2018-02-16T12:00:01.376Z,94.30
2018-02-16T12:01:07.288Z,94.40
2018-02-16T12:02:11.567Z,94.40
2018-02-16T12:03:15.853Z,93.60
2018-02-16T12:04:20.041Z,93.90
2018-02-16T12:05:24.239Z,92.70
2018-02-16T12:06:28.403Z,92.70
2018-02-16T12:07:35.540Z,92.60
2018-02-16T12:08:39.939Z,92.60
2018-02-16T12:09:44.415Z,92.50
2018-02-16T12:10:49.152Z,92.40
2018-02-16T12:11:53.404Z,92.90
2018-02-16T12:12:57.593Z,93.20
2018-02-16T12:14:03.536Z,93.40
2018-02-16T12:15:08.207Z,93.30
2018-02-16T12:16:12.629Z,93.20
2018-02-16T12:17:17.014Z,93.40
2018-02-16T12:18:21.192Z,94.40
2018-02-16T12:19:25.363Z,94.00
2018-02-16T12:20:29.543Z,93.10
2018-02-16T12:21:36.270Z,92.90
2018-02-16T12:22:40.961Z,92.30
2018-02-16T12:23:45.504Z,92.20
2018-02-16T12:24:49.698Z,91.90
2018-02-16T12:25:53.911Z,92.00
2018-02-16T12:26:58.114Z,91.90
2018-02-16T12:28:02.868Z,91.50
2018-02-16T12:29:08.937Z,91.30
2018-02-16T12:30:13.219Z,91.30
2018-02-16T12:31:17.453Z,91.70
2018-02-16T12:32:22.411Z,91.50
2018-02-16T12:33:26.658Z,91.30
2018-02-16T12:34:30.899Z,91.10
2018-02-16T12:35:35.343Z,91.10
2018-02-16T12:36:39.581Z,90.80
2018-02-16T12:37:43.945Z,91.20
2018-02-16T12:38:48.959Z,90.80
2018-02-16T12:39:53.176Z,91.10
2018-02-16T12:40:58.317Z,90.40
2018-02-16T12:42:03.366Z,90.20
2018-02-16T12:43:08.239Z,90.00
2018-02-16T12:44:13.298Z,90.00
2018-02-16T12:45:17.648Z,89.90
2018-02-16T12:46:21.882Z,90.10
2018-02-16T12:47:26.047Z,90.40
2018-02-16T12:48:30.984Z,87.60
2018-02-16T12:49:37.578Z,87.50
2018-02-16T12:50:42.448Z,87.10
2018-02-16T12:51:47.545Z,85.60
2018-02-16T12:52:51.725Z,85.60
2018-02-16T12:53:55.907Z,84.90
2018-02-16T12:55:00.843Z,85.30
2018-02-16T12:56:07.522Z,83.90
2018-02-16T12:57:12.152Z,83.90
2018-02-16T12:58:16.703Z,83.70
2018-02-16T12:59:20.886Z,84.10
2018-02-16T13:00:25.071Z,83.90
2018-02-16T13:01:30.018Z,84.20
2018-02-16T13:02:35.928Z,83.90
2018-02-16T13:03:40.778Z,84.00
2018-02-16T13:04:46.312Z,86.50
2018-02-16T13:05:51.249Z,86.10
2018-02-16T13:06:56.217Z,85.50
2018-02-16T13:08:00.415Z,85.50
2018-02-16T13:09:05.658Z,85.60
2018-02-16T13:10:10.601Z,85.40
2018-02-16T13:11:14.910Z,85.80
2018-02-16T13:12:19.165Z,85.90
2018-02-16T13:13:24.108Z,87.10
2018-02-16T13:14:29.045Z,87.50
2018-02-16T13:15:33.543Z,87.50
2018-02-16T13:16:39.037Z,87.80
2018-02-16T13:17:43.534Z,87.50
2018-02-16T13:18:47.777Z,87.30
2018-02-16T13:19:51.968Z,87.00
2018-02-16T13:20:56.154Z,87.10
2018-02-16T13:22:00.327Z,87.40
2018-02-16T13:23:04.904Z,87.00
2018-02-16T13:24:11.057Z,88.50
2018-02-16T13:25:15.728Z,88.40
2018-02-16T13:26:19.919Z,88.00
2018-02-16T13:27:24.118Z,87.60
2018-02-16T13:28:28.307Z,87.70
2018-02-16T13:29:32.626Z,88.00
2018-02-16T13:30:37.429Z,87.40
2018-02-16T13:31:42.156Z,86.20
2018-02-16T13:32:46.479Z,86.10
2018-02-16T13:33:50.676Z,86.20
2018-02-16T13:34:54.991Z,84.90
2018-02-16T13:35:59.163Z,84.50
2018-02-16T13:37:03.775Z,84.50
2018-02-16T13:38:09.668Z,84.30
2018-02-16T13:39:14.121Z,84.00
2018-02-16T13:40:18.662Z,83.80
2018-02-16T13:41:22.891Z,84.20
2018-02-16T13:42:27.092Z,84.50
2018-02-16T13:43:31.264Z,83.40
2018-02-16T13:44:36.976Z,84.00
2018-02-16T13:45:42.207Z,83.90
2018-02-16T13:46:46.474Z,84.40
2018-02-16T13:47:50.666Z,84.30
2018-02-16T13:48:55.623Z,86.10
2018-02-16T13:49:59.841Z,85.40
2018-02-16T13:51:05.276Z,85.90
2018-02-16T13:52:10.592Z,85.90
2018-02-16T13:53:15.282Z,86.20